Time;durP1;ratioP1;P1;durP2;ratioP2;P2;SDS_P1;SDS_P2;PMS_P1;PMS_P2;Temp;Humidity;BMP_temperature;BMP_pressure;BME280_temperature;BME280_humidity;BME280_pressure;Samples;Min_cycle;Max_cycle;Signal;HPM_P1;HPM_P2
2021/01/14 00:01:44;;;;;;;6.32;2.15;;;9.50;99.90;;;9.02;88.60;102152.38;4131680;28;20054;-70
2021/01/14 00:03:44;;;;;;;7.75;2.58;;;9.60;99.90;;;9.02;88.74;102148.91;4140614;28;20038;-70
2021/01/14 00:05:45;;;;;;;7.18;2.60;;;9.60;99.90;;;9.08;88.36;102143.22;4133673;28;20035;-70
2021/01/14 00:07:49;;;;;;;6.07;2.30;;;9.60;99.90;;;9.04;88.44;102154.91;4148841;28;20030;-70
2021/01/14 00:09:50;;;;;;;9.68;3.78;;;9.60;99.90;;;9.08;88.15;102144.03;4140115;28;20029;-70
2021/01/14 00:11:51;;;;;;;7.10;2.42;;;9.70;99.90;;;9.03;88.41;102145.31;4152531;28;20030;-70
2021/01/14 00:13:52;;;;;;;7.70;1.75;;;9.70;99.90;;;8.97;88.52;102148.38;4168720;28;20069;-70
2021/01/14 00:15:53;;;;;;;7.90;2.53;;;9.60;99.90;;;9.03;88.58;102143.53;4152424;28;20026;-70
2021/01/14 00:17:54;;;;;;;6.22;2.00;;;9.70;99.90;;;9.00;88.68;102135.84;4152559;28;20025;-70
2021/01/14 00:19:54;;;;;;;5.32;1.77;;;9.70;99.90;;;8.98;88.82;102131.66;4152527;28;20037;-70
2021/01/14 00:21:55;;;;;;;10.35;2.08;;;9.70;99.90;;;8.98;88.72;102124.59;4152283;28;20034;-70
2021/01/14 00:23:56;;;;;;;6.40;2.10;;;9.70;99.90;;;8.95;89.22;102126.63;4152328;28;20104;-70
2021/01/14 00:25:57;;;;;;;4.28;1.70;;;9.70;99.90;;;8.98;89.46;102118.50;4129339;28;20034;-70
2021/01/14 00:27:58;;;;;;;7.63;2.58;;;9.70;99.90;;;9.04;89.61;102131.22;4139500;28;20034;-70
2021/01/14 00:29:59;;;;;;;11.02;2.17;;;9.70;99.90;;;9.04;89.49;102121.53;4125131;28;20034;-70
2021/01/14 00:32:00;;;;;;;6.22;2.70;;;9.80;99.90;;;9.10;89.50;102120.22;4139902;28;20801;-70
2021/01/14 00:34:01;;;;;;;9.68;2.33;;;9.80;99.90;;;9.14;89.32;102124.34;4144173;28;20104;-70
2021/01/14 00:36:02;;;;;;;8.18;2.50;;;9.80;99.90;;;9.03;90.06;102113.72;4142174;28;20172;-70
2021/01/14 00:38:04;;;;;;;10.63;2.42;;;9.80;99.90;;;9.14;89.93;102121.69;4129991;28;20034;-70
2021/01/14 00:40:05;;;;;;;6.53;2.40;;;9.80;99.90;;;9.12;90.01;102107.78;4145794;28;20414;-70
2021/01/14 00:42:06;;;;;;;10.70;2.88;;;9.80;99.90;;;9.08;89.88;102106.34;4145531;28;20421;-70
2021/01/14 00:44:07;;;;;;;6.65;2.38;;;9.80;99.90;;;9.06;90.07;102102.97;4131512;28;20061;-70
2021/01/14 00:46:15;;;;;;;9.48;2.42;;;9.80;99.90;;;9.03;90.66;102108.47;4138778;28;20555;-70
2021/01/14 00:48:16;;;;;;;6.03;2.05;;;9.80;99.90;;;9.13;90.32;102104.22;4143068;28;20511;-70
2021/01/14 00:50:17;;;;;;;11.00;3.03;;;9.80;99.90;;;9.26;89.57;102103.19;4125237;28;20026;-70
2021/01/14 00:52:18;;;;;;;10.75;3.67;;;9.80;99.90;;;9.23;89.57;102089.41;4138643;28;20042;-70
2021/01/14 00:54:20;;;;;;;12.05;2.50;;;9.80;99.90;;;9.15;89.72;102089.97;4124769;28;20027;-70
2021/01/14 00:56:29;;;;;;;10.50;3.13;;;9.80;99.90;;;9.11;90.76;102095.59;4146185;28;20125;-70
2021/01/14 00:58:30;;;;;;;6.80;2.78;;;9.80;99.90;;;9.15;90.72;102099.66;4124996;28;20114;-70
2021/01/14 01:00:30;;;;;;;12.15;3.25;;;9.80;99.90;;;9.13;90.47;102091.91;4139190;28;20424;-70
2021/01/14 01:02:31;;;;;;;12.15;3.15;;;9.80;99.90;;;9.09;90.70;102095.69;4135606;28;20053;-70
2021/01/14 01:04:32;;;;;;;9.25;2.85;;;9.70;99.90;;;9.13;90.78;102085.78;4136748;28;20404;-70
2021/01/14 01:06:36;;;;;;;8.88;2.10;;;9.70;99.90;;;9.13;91.08;102088.41;4135539;28;20416;-70
2021/01/14 01:08:37;;;;;;;9.48;2.97;;;9.70;99.90;;;9.05;90.66;102085.53;4135655;28;20030;-70
2021/01/14 01:10:39;;;;;;;7.80;2.50;;;9.70;99.90;;;9.01;91.00;102077.00;4135556;28;20027;-70
2021/01/14 01:12:40;;;;;;;11.27;3.40;;;9.70;99.90;;;9.09;90.86;102086.97;4135455;28;20027;-70
2021/01/14 01:14:41;;;;;;;12.52;4.10;;;9.70;99.90;;;9.11;91.19;102085.06;4136792;28;20046;-70
2021/01/14 01:16:42;;;;;;;13.27;4.65;;;9.60;99.90;;;8.94;91.67;102067.88;4136720;28;20041;-70
2021/01/14 01:18:43;;;;;;;13.15;4.47;;;9.60;99.90;;;9.04;91.25;102083.84;4136617;28;20516;-70
2021/01/14 01:20:44;;;;;;;10.75;4.03;;;9.70;99.90;;;8.96;91.90;102081.75;4136582;28;20030;-70
2021/01/14 01:22:44;;;;;;;13.07;4.60;;;9.60;99.90;;;8.94;91.15;102081.03;4135194;28;20030;-70
2021/01/14 01:24:45;;;;;;;5.07;2.10;;;9.60;99.90;;;9.01;91.50;102070.91;4142736;28;20038;-70
2021/01/14 01:26:53;;;;;;;8.48;2.17;;;9.60;99.90;;;9.00;91.60;102069.22;4133558;28;20027;-70
2021/01/14 01:28:53;;;;;;;8.63;2.33;;;9.70;99.90;;;9.04;91.32;102073.31;4131126;28;20101;-70
2021/01/14 01:30:54;;;;;;;6.90;3.38;;;9.60;99.90;;;9.08;90.73;102072.13;4145081;28;20022;-70
2021/01/14 01:32:55;;;;;;;9.07;2.22;;;9.70;99.90;;;9.07;90.12;102078.34;4145046;28;20053;-70
2021/01/14 01:34:56;;;;;;;5.13;1.77;;;9.70;99.90;;;9.03;90.95;102061.09;4128843;28;20030;-70
2021/01/14 01:36:57;;;;;;;7.20;2.30;;;9.70;99.90;;;9.10;90.48;102073.69;4145134;28;20025;-70
2021/01/14 01:38:59;;;;;;;4.93;2.28;;;9.70;99.90;;;9.23;89.20;102063.06;4128329;28;20037;-70
2021/01/14 01:41:02;;;;;;;8.18;2.55;;;9.80;99.90;;;9.21;88.58;102059.72;4128338;28;20038;-70
2021/01/14 01:43:02;;;;;;;7.75;2.20;;;9.80;99.90;;;9.17;89.38;102074.09;4137213;28;20025;-70
2021/01/14 01:45:04;;;;;;;10.50;2.78;;;9.90;99.90;;;9.16;88.68;102059.22;4123926;28;20045;-70
2021/01/14 01:47:06;;;;;;;6.55;2.53;;;9.80;99.90;;;9.27;88.93;102064.53;4124027;28;20306;-70
2021/01/14 01:49:08;;;;;;;8.45;2.78;;;9.80;99.90;;;9.29;87.62;102052.06;4143346;28;20497;-70
2021/01/14 01:51:08;;;;;;;8.93;2.90;;;9.90;99.90;;;9.20;88.29;102052.78;4144742;28;20157;-70
2021/01/14 01:53:11;;;;;;;9.20;2.50;;;9.90;99.90;;;9.22;88.10;102048.25;4148809;28;20054;-70
2021/01/14 01:55:12;;;;;;;11.50;2.22;;;9.90;99.90;;;9.32;87.57;102052.69;4144866;28;20084;-70
2021/01/14 01:57:13;;;;;;;8.80;2.30;;;9.90;99.90;;;9.32;87.38;102046.56;4146218;28;20026;-70
2021/01/14 01:59:19;;;;;;;8.18;2.00;;;9.90;99.90;;;9.38;86.89;102056.66;4151055;28;20105;-70
2021/01/14 02:01:20;;;;;;;12.43;2.70;;;9.90;99.90;;;9.33;87.07;102057.00;4137349;28;20030;-70
2021/01/14 02:03:20;;;;;;;7.00;3.55;;;10.00;99.90;;;9.19;87.66;102038.78;4134956;28;20093;-70
2021/01/14 02:05:21;;;;;;;5.63;2.42;;;9.90;99.90;;;9.21;87.48;102041.28;4135023;28;20077;-70
2021/01/14 02:07:45;;;;;;;9.55;2.10;;;9.80;99.90;;;9.30;87.01;102048.50;4118493;28;20030;-70
2021/01/14 02:09:52;;;;;;;6.95;2.20;;;9.80;99.90;;;9.28;86.20;102040.72;4119302;28;20041;-70
2021/01/14 02:12:04;;;;;;;8.75;1.98;;;9.80;99.90;;;9.20;87.04;102044.91;4134976;28;20061;-70
2021/01/14 02:14:19;;;;;;;8.15;2.38;;;9.80;99.90;;;9.22;87.00;102054.34;4134900;28;20057;-70
2021/01/14 02:16:21;;;;;;;4.03;2.17;;;9.80;99.90;;;9.12;87.74;102037.56;4136215;28;20113;-70
2021/01/14 02:18:22;;;;;;;4.53;1.70;;;9.80;99.90;;;9.25;87.52;102040.97;4134839;28;20038;-70
2021/01/14 02:20:23;;;;;;;7.53;2.45;;;9.80;99.90;;;9.18;87.43;102033.63;4134850;28;20081;-71
2021/01/14 02:22:31;;;;;;;7.57;1.80;;;9.80;99.90;;;9.15;87.61;102045.22;4134612;28;20026;-70
2021/01/14 02:25:01;;;;;;;6.63;1.80;;;9.80;99.90;;;9.16;87.75;102040.81;4141374;28;20030;-70
2021/01/14 02:27:03;;;;;;;6.30;1.80;;;9.70;99.90;;;9.11;87.63;102029.78;4139614;28;20049;-70
2021/01/14 02:29:05;;;;;;;5.13;1.30;;;9.70;99.90;;;9.15;87.89;102033.84;4144282;28;20203;-70
2021/01/14 02:31:06;;;;;;;5.00;1.77;;;9.80;99.90;;;9.20;87.49;102034.38;4128579;28;20034;-70
2021/01/14 02:33:12;;;;;;;4.68;1.92;;;9.70;99.90;;;9.10;87.70;102021.06;4144162;28;20025;-70
2021/01/14 02:35:13;;;;;;;4.82;1.73;;;9.80;99.90;;;9.07;87.48;102023.91;4137172;28;20060;-70
2021/01/14 02:37:14;;;;;;;6.78;2.10;;;9.80;99.90;;;9.08;87.96;102019.50;4123103;28;20033;-70
2021/01/14 02:39:15;;;;;;;8.18;2.00;;;9.70;99.90;;;9.13;88.05;102025.25;4137807;28;20038;-70
2021/01/14 02:41:16;;;;;;;8.48;2.58;;;9.70;99.90;;;9.10;88.36;102017.56;4141891;28;20034;-70
2021/01/14 02:43:17;;;;;;;8.55;2.33;;;9.70;99.90;;;9.04;88.42;102012.78;4129893;28;20042;-70
2021/01/14 02:45:18;;;;;;;9.57;2.72;;;9.70;99.90;;;9.16;88.62;102020.59;4128033;28;20026;-70
2021/01/14 02:47:22;;;;;;;9.75;2.22;;;9.70;99.90;;;9.27;88.06;102010.06;4129500;28;20529;-70
2021/01/14 02:49:27;;;;;;;10.90;3.40;;;9.80;99.90;;;9.26;88.57;102011.03;4144714;28;20030;-70
2021/01/14 02:51:41;;;;;;;14.95;3.20;;;9.80;99.90;;;9.21;88.71;102007.91;4144717;28;20049;-70
2021/01/14 02:53:43;;;;;;;9.52;2.90;;;9.90;99.90;;;9.33;88.51;102008.78;4127898;28;20513;-70
2021/01/14 02:55:45;;;;;;;8.88;2.40;;;9.90;99.90;;;9.32;89.05;102012.34;4145208;28;20076;-70
2021/01/14 02:57:46;;;;;;;8.25;2.05;;;9.90;99.90;;;9.32;89.11;102002.66;4141646;28;20030;-70
2021/01/14 02:59:47;;;;;;;10.95;2.47;;;9.90;99.90;;;9.26;89.52;102000.50;4148113;28;20026;-70
2021/01/14 03:01:49;;;;;;;10.35;2.70;;;9.90;99.90;;;9.25;89.48;101998.00;4135628;28;20027;-70
2021/01/14 03:03:49;;;;;;;7.40;2.58;;;9.90;99.90;;;9.25;89.41;101998.00;4135761;28;20034;-70
2021/01/14 03:05:51;;;;;;;7.82;2.70;;;9.90;99.90;;;9.13;90.05;101993.66;4134498;28;20026;-70
2021/01/14 03:07:51;;;;;;;11.93;2.40;;;9.80;99.90;;;9.13;90.78;101983.97;4135261;28;20041;-70
2021/01/14 03:09:52;;;;;;;20.52;3.83;;;9.80;99.90;;;9.27;89.81;101982.91;4134594;28;20018;-70
2021/01/14 03:11:53;;;;;;;8.82;2.38;;;9.80;99.90;;;9.30;90.33;101980.03;4136394;28;20030;-70
2021/01/14 03:13:55;;;;;;;11.40;2.67;;;9.90;99.90;;;9.34;90.60;101995.50;4138711;28;20026;-70
2021/01/14 03:15:56;;;;;;;9.75;2.88;;;9.90;99.90;;;9.36;90.34;101990.09;4136449;28;20325;-70
2021/01/14 03:17:57;;;;;;;8.35;2.58;;;9.90;99.90;;;9.24;91.21;101986.63;4133113;28;20057;-70
2021/01/14 03:19:58;;;;;;;10.52;2.95;;;9.90;99.90;;;9.14;91.21;101975.09;4146950;28;20038;-70
2021/01/14 03:22:00;;;;;;;7.15;2.63;;;9.90;99.90;;;9.27;90.86;101970.59;4132673;28;20050;-70
2021/01/14 03:24:01;;;;;;;15.75;3.42;;;9.90;99.90;;;9.29;91.58;101980.97;4147072;28;20424;-70
2021/01/14 03:26:02;;;;;;;11.35;3.60;;;9.90;99.90;;;9.43;90.58;101980.78;4146339;28;20065;-70
2021/01/14 03:28:03;;;;;;;9.63;2.15;;;10.00;99.90;;;9.45;90.47;101986.75;4141065;28;20543;-70
2021/01/14 03:30:06;;;;;;;16.83;3.67;;;10.00;99.90;;;9.50;90.58;101975.88;4140059;28;20067;-70
2021/01/14 03:32:07;;;;;;;12.57;2.20;;;10.00;99.90;;;9.45;90.45;101966.53;4140366;28;20671;-70
2021/01/14 03:34:08;;;;;;;15.02;3.83;;;10.10;99.90;;;9.40;91.11;101976.59;4127291;28;20125;-70
2021/01/14 03:36:14;;;;;;;10.77;3.20;;;10.10;99.90;;;9.45;91.32;101968.31;4146468;28;20033;-70
2021/01/14 03:38:15;;;;;;;13.40;3.97;;;10.10;99.90;;;9.48;91.11;101970.72;4146855;28;20525;-70
2021/01/14 03:40:17;;;;;;;13.48;3.40;;;10.20;99.90;;;9.48;90.87;101967.25;4147161;28;20444;-71
2021/01/14 03:42:22;;;;;;;11.57;2.80;;;10.20;99.90;;;9.44;92.09;101971.91;4147265;28;20081;-70
2021/01/14 03:44:24;;;;;;;7.20;2.50;;;10.20;99.90;;;9.46;91.67;101964.75;4132667;28;20038;-70
2021/01/14 03:46:25;;;;;;;9.50;2.50;;;10.20;99.90;;;9.46;91.69;101959.47;4148963;28;20037;-70
2021/01/14 03:48:26;;;;;;;10.45;2.92;;;10.20;99.90;;;9.38;92.12;101964.47;4149422;28;20030;-70
2021/01/14 03:50:26;;;;;;;8.25;3.53;;;10.20;99.90;;;9.48;92.53;101965.44;4154169;28;20022;-70
2021/01/14 03:52:27;;;;;;;8.10;2.30;;;10.20;99.90;;;9.46;92.25;101954.22;4146826;28;20406;-70
2021/01/14 03:54:28;;;;;;;9.70;2.33;;;10.20;99.90;;;9.57;91.47;101967.38;4136564;28;20057;-70
2021/01/14 03:56:34;;;;;;;10.35;2.60;;;10.20;99.90;;;9.44;92.16;101956.09;4137838;28;20033;-70
2021/01/14 03:58:35;;;;;;;5.50;2.65;;;10.30;99.90;;;9.43;92.22;101949.19;4137037;28;20102;-70
2021/01/14 04:00:36;;;;;;;12.93;3.17;;;10.30;99.90;;;9.54;92.22;101954.44;4142943;28;20097;-70
2021/01/14 04:02:37;;;;;;;7.45;2.38;;;10.20;99.90;;;9.52;92.47;101948.47;4152932;28;20034;-70
2021/01/14 04:04:41;;;;;;;8.52;2.65;;;10.30;99.90;;;9.46;92.47;101954.22;4133580;28;20023;-70
2021/01/14 04:06:42;;;;;;;;;;;10.30;99.90;;;9.54;92.33;101945.69;4136925;28;20035;-70
2021/01/14 04:08:43;;;;;;;7.25;3.28;;;10.30;99.90;;;9.51;92.37;101944.16;4137868;28;19917;-70
2021/01/14 04:10:44;;;;;;;11.43;3.47;;;10.30;99.90;;;9.54;92.14;101936.00;4136537;28;20563;-70
2021/01/14 04:12:45;;;;;;;7.65;2.58;;;10.30;99.90;;;9.59;91.99;101939.09;4137091;28;20124;-70
2021/01/14 04:14:50;;;;;;;9.25;2.35;;;10.30;99.90;;;9.56;92.49;101936.72;4146377;28;20475;-70
2021/01/14 04:16:52;;;;;;;9.38;2.20;;;10.30;99.90;;;9.51;92.84;101936.25;4131844;28;20038;-70
2021/01/14 04:18:53;;;;;;;11.55;2.25;;;10.30;99.90;;;9.56;92.46;101939.34;4132091;28;20053;-70
2021/01/14 04:20:54;;;;;;;7.65;2.20;;;10.30;99.90;;;9.59;92.11;101936.47;4139022;28;20064;-70
2021/01/14 04:22:55;;;;;;;9.77;2.40;;;10.30;99.90;;;9.56;92.22;101944.63;4124890;28;20034;-70
2021/01/14 04:25:02;;;;;;;6.55;1.90;;;10.30;99.90;;;9.44;93.03;101935.03;4138362;28;20319;-70
2021/01/14 04:27:05;;;;;;;15.35;3.00;;;10.30;99.90;;;9.56;92.85;101938.53;4141368;28;20033;-71
2021/01/14 04:29:07;;;;;;;9.43;2.25;;;10.30;99.90;;;9.56;92.77;101938.53;4132053;28;20034;-70
2021/01/14 04:31:11;;;;;;;7.60;3.63;;;10.40;99.90;;;9.70;92.55;101947.03;4135439;28;20029;-70
2021/01/14 04:33:12;;;;;;;15.82;3.33;;;10.30;99.90;;;9.62;93.04;101938.88;4138175;28;20026;-70
2021/01/14 04:35:13;;;;;;;9.35;3.03;;;10.40;99.90;;;9.52;93.65;101935.28;4124661;28;20034;-70
2021/01/14 04:37:14;;;;;;;12.32;3.33;;;10.40;99.90;;;9.52;94.07;101943.19;4125091;28;20114;-70
2021/01/14 04:39:15;;;;;;;15.45;4.22;;;10.40;99.90;;;9.43;94.03;101936.84;4142716;28;20551;-70
2021/01/14 04:41:19;;;;;;;11.63;3.05;;;10.30;99.90;;;9.51;94.33;101933.59;4145357;28;20029;-70
2021/01/14 04:43:22;;;;;;;11.20;3.00;;;10.30;99.90;;;9.47;94.63;101921.63;4118048;28;20138;-70
2021/01/14 04:45:23;;;;;;;12.60;3.67;;;10.30;99.90;;;9.50;94.24;101925.84;4129491;28;20068;-70
2021/01/14 04:47:26;;;;;;;12.15;3.17;;;10.30;99.90;;;9.58;93.73;101920.81;4129462;28;20454;-70
2021/01/14 04:49:27;;;;;;;9.75;3.78;;;10.30;99.90;;;9.60;94.04;101913.59;4114482;28;20030;-70
2021/01/14 04:51:29;;;;;;;11.73;2.90;;;10.40;99.90;;;9.52;94.50;101908.97;4129718;28;20068;-70
2021/01/14 04:53:33;;;;;;;12.90;3.05;;;10.40;99.90;;;9.57;93.83;101914.69;4144930;28;20053;-70
2021/01/14 04:55:46;;;;;;;11.73;3.22;;;10.40;99.90;;;9.59;93.95;101910.13;4138646;28;20137;-70
2021/01/14 04:57:50;;;;;;;9.23;2.70;;;10.40;99.90;;;9.66;93.83;101903.44;4138374;28;20034;-70
2021/01/14 04:59:53;;;;;;;8.25;2.90;;;10.30;99.90;;;9.58;93.90;101911.09;4124979;28;20076;-70
2021/01/14 05:01:58;;;;;;;9.65;2.55;;;10.40;99.90;;;9.61;94.00;101913.50;4142032;28;20022;-70
2021/01/14 05:04:02;;;;;;;8.52;3.00;;;10.40;99.90;;;9.66;94.25;101908.69;4145535;28;20030;-70
2021/01/14 05:06:05;;;;;;;13.23;2.92;;;10.50;99.90;;;9.63;93.93;101902.81;4144804;28;20396;-70
2021/01/14 05:08:08;;;;;;;6.72;2.90;;;10.40;99.90;;;9.67;93.75;101891.94;4130910;28;20069;-70
2021/01/14 05:10:10;;;;;;;10.70;2.95;;;10.40;99.90;;;9.58;93.79;101899.72;4145158;28;20021;-70
2021/01/14 05:12:16;;;;;;;8.90;2.42;;;10.40;99.90;;;9.58;94.86;101899.72;4130575;28;20034;-70
2021/01/14 05:14:18;;;;;;;10.82;3.17;;;10.40;99.90;;;9.60;94.92;101901.28;4145192;28;20026;-70
2021/01/14 05:16:19;;;;;;;8.23;2.65;;;10.40;99.90;;;9.76;94.29;101895.63;4143974;28;20057;-71
2021/01/14 05:18:20;;;;;;;9.90;2.65;;;10.50;99.90;;;9.57;95.26;101888.34;4132661;28;20042;-71
2021/01/14 05:20:21;;;;;;;10.75;2.78;;;10.50;99.90;;;9.41;96.71;101888.72;4129836;28;20297;-70
2021/01/14 05:22:25;;;;;;;10.90;3.10;;;10.40;99.90;;;9.59;96.00;101891.69;4137704;28;20108;-70
2021/01/14 05:24:26;;;;;;;7.80;2.88;;;10.50;99.90;;;9.66;95.95;101892.88;4142169;28;20038;-70
2021/01/14 05:26:32;;;;;;;13.02;3.95;;;10.50;99.90;;;9.68;96.09;101879.56;4130876;28;20509;-70
2021/01/14 05:28:33;;;;;;;12.60;3.25;;;10.50;99.90;;;9.63;96.01;101871.22;4129594;28;20038;-70
2021/01/14 05:30:34;;;;;;;13.75;4.07;;;10.50;99.90;;;9.61;96.27;101879.25;4144942;28;20487;-70
2021/01/14 05:32:36;;;;;;;10.02;3.53;;;10.50;99.90;;;9.50;97.35;101876.59;4131015;28;20026;-70
2021/01/14 05:34:47;;;;;;;13.27;3.28;;;10.40;99.90;;;9.39;97.84;101874.84;4144658;28;20485;-70
2021/01/14 05:36:56;;;;;;;7.30;2.83;;;10.40;99.90;;;9.47;97.76;101868.94;4145027;28;20037;-70
2021/01/14 05:38:58;;;;;;;15.55;2.97;;;10.40;99.90;;;9.56;97.09;101859.50;4127943;28;20094;-70
2021/01/14 05:41:11;;;;;;;15.93;3.60;;;10.40;99.90;;;9.60;97.17;101864.41;4132418;28;20244;-70
2021/01/14 05:43:12;;;;;;;8.55;2.42;;;10.40;99.90;;;9.55;97.12;101871.00;4127612;28;20396;-70
2021/01/14 05:45:23;;;;;;;14.88;3.22;;;10.40;99.90;;;9.48;97.79;101873.28;4138428;28;20472;-70
2021/01/14 05:47:28;;;;;;;13.25;3.42;;;10.40;99.90;;;9.47;97.69;101873.41;4143502;28;20151;-70
2021/01/14 05:49:29;;;;;;;15.23;3.40;;;10.30;99.90;;;9.48;97.97;101865.38;4144698;28;20109;-70
2021/01/14 05:51:32;;;;;;;13.13;3.45;;;10.30;99.90;;;9.36;98.04;101859.28;4144565;28;20030;-70
2021/01/14 05:53:51;;;;;;;11.57;3.08;;;10.30;99.90;;;9.45;98.83;101873.50;4130282;28;20058;-70
2021/01/14 05:55:53;;;;;;;9.35;3.65;;;10.30;99.90;;;9.38;98.97;101864.41;4143873;28;20469;-70
2021/01/14 05:58:02;;;;;;;11.93;3.20;;;10.30;99.90;;;9.45;98.43;101869.09;4128221;28;20078;-70
2021/01/14 06:00:14;;;;;;;12.18;3.20;;;10.30;99.90;;;9.50;98.56;101866.06;4129803;28;20981;-70
2021/01/14 06:02:28;;;;;;;14.13;3.83;;;10.30;99.90;;;9.47;98.70;101857.59;4132837;28;20116;-70
2021/01/14 06:04:32;;;;;;;19.67;4.88;;;10.30;99.90;;;9.56;98.57;101865.59;4138057;28;20037;-70
2021/01/14 06:06:33;;;;;;;9.68;3.22;;;10.40;99.90;;;9.53;98.49;101865.84;4123225;28;20085;-70
2021/01/14 06:08:34;;;;;;;9.48;3.40;;;10.30;99.90;;;9.63;97.56;101861.53;4138860;28;20062;-70
2021/01/14 06:10:37;;;;;;;9.38;3.13;;;10.40;99.90;;;9.63;97.48;101856.25;4144633;28;20044;-70
2021/01/14 06:12:51;;;;;;;13.50;3.22;;;10.40;99.90;;;9.56;98.02;101854.25;4130429;28;20034;-70
2021/01/14 06:14:52;;;;;;;18.17;3.37;;;10.40;99.90;;;9.61;97.53;101858.19;4144185;28;20432;-70
2021/01/14 06:16:53;;;;;;;9.80;3.47;;;10.50;99.90;;;9.56;97.81;101854.25;4129937;28;20034;-70
2021/01/14 06:19:08;;;;;;;14.75;3.83;;;10.40;99.90;;;9.62;97.57;101857.19;4130158;28;20549;-70
2021/01/14 06:21:09;;;;;;;15.73;3.20;;;10.40;99.90;;;9.59;97.88;101849.53;4143933;28;20038;-70
2021/01/14 06:23:10;;;;;;;10.77;2.78;;;10.50;99.90;;;9.61;97.98;101850.28;4130727;28;20094;-70
2021/01/14 06:25:12;;;;;;;11.38;3.47;;;10.50;99.90;;;9.63;97.26;101843.06;4137872;28;20120;-70
2021/01/14 06:27:13;;;;;;;9.77;3.30;;;10.50;99.90;;;9.64;97.49;101847.41;4123840;28;20037;-70
2021/01/14 06:29:25;;;;;;;11.50;2.70;;;10.50;99.90;;;9.66;97.51;101839.34;4123333;28;20039;-70
2021/01/14 06:31:27;;;;;;;13.25;3.15;;;10.50;99.90;;;9.63;97.89;101835.16;4140255;28;20156;-70
2021/01/14 06:33:31;;;;;;;11.80;2.33;;;10.40;99.90;;;9.72;97.42;101838.88;4144741;28;20536;-70
2021/01/14 06:35:33;;;;;;;15.13;2.95;;;10.50;99.90;;;9.67;98.09;101835.78;4144388;28;20444;-70
2021/01/14 06:37:38;;;;;;;14.57;3.20;;;10.50;99.90;;;9.68;98.14;101834.78;4144871;28;20029;-70
2021/01/14 06:39:43;;;;;;;10.20;3.10;;;10.50;99.90;;;9.66;98.24;101827.03;4144582;28;20468;-70
2021/01/14 06:41:46;;;;;;;14.70;2.95;;;10.50;99.90;;;9.69;98.33;101828.56;4131119;28;20030;-70
2021/01/14 06:43:50;;;;;;;11.05;2.75;;;10.50;99.90;;;9.71;98.37;101832.75;4144375;28;20060;-70
2021/01/14 06:46:00;;;;;;;16.48;4.15;;;10.50;99.90;;;9.63;98.93;101829.91;4144813;28;20057;-70
2021/01/14 06:48:12;;;;;;;11.80;2.72;;;10.50;99.90;;;9.76;99.42;101833.25;4139455;28;20064;-70
2021/01/14 06:50:18;;;;;;;11.48;2.60;;;10.50;99.90;;;9.72;99.78;101836.22;4141402;28;20034;-69
2021/01/14 06:52:23;;;;;;;15.90;3.10;;;10.50;99.90;;;9.68;99.95;101838.25;4136945;28;20583;-69
2021/01/14 06:54:26;;;;;;;9.32;2.63;;;10.50;99.90;;;9.66;100.00;101826.19;4145647;28;20109;-70
2021/01/14 06:56:36;;;;;;;11.30;2.57;;;10.50;99.90;;;9.63;100.00;101827.28;4147871;28;20025;-70
2021/01/14 06:58:42;;;;;;;8.32;3.00;;;10.50;99.90;;;9.70;100.00;101833.72;4148071;28;20527;-69
2021/01/14 07:00:48;;;;;;;11.85;3.53;;;10.50;99.90;;;9.64;100.00;101817.56;4147735;28;20038;-70
2021/01/14 07:02:53;;;;;;;9.23;2.45;;;10.50;99.90;;;9.68;100.00;101817.19;4148154;28;20048;-69
2021/01/14 07:05:05;;;;;;;9.25;2.83;;;10.50;99.90;;;9.54;100.00;101809.56;4148168;28;20038;-70
2021/01/14 07:07:20;;;;;;;11.70;3.17;;;10.40;99.90;;;9.60;100.00;101814.34;4131650;28;20056;-71
2021/01/14 07:09:30;;;;;;;9.15;3.17;;;10.40;99.90;;;9.62;100.00;101804.50;4130451;28;20038;-69
2021/01/14 07:11:43;;;;;;;7.75;2.40;;;10.40;99.90;;;9.54;100.00;101811.38;4141522;28;20040;-70
2021/01/14 07:13:50;;;;;;;5.18;2.40;;;10.40;99.90;;;9.56;100.00;101812.91;4141570;28;20092;-70
2021/01/14 07:15:56;;;;;;;7.28;2.40;;;10.40;99.90;;;9.52;100.00;101800.97;4126481;28;20142;-70
2021/01/14 07:18:04;;;;;;;6.57;2.20;;;10.40;99.90;;;9.54;100.00;101804.31;4131360;28;20066;-69
2021/01/14 07:20:09;;;;;;;7.07;2.53;;;10.40;99.90;;;9.55;100.00;101805.16;4147994;28;20373;-69
2021/01/14 07:22:14;;;;;;;7.32;2.92;;;10.40;99.90;;;9.51;100.00;101799.28;4147418;28;20026;-69
2021/01/14 07:24:29;;;;;;;8.45;2.78;;;10.30;99.90;;;9.55;100.00;101798.09;4137951;28;20448;-69
2021/01/14 07:26:31;;;;;;;;;;;10.40;99.90;;;9.40;100.00;101791.41;4148157;28;20049;-69
2021/01/14 07:28:36;;;;;;;3.63;1.70;;;10.30;99.90;;;9.49;100.00;101788.03;4147380;28;19913;-69
2021/01/14 07:30:37;;;;;;;5.15;1.90;;;10.30;99.90;;;9.54;100.00;101783.22;4147466;28;20488;-69
2021/01/14 07:33:05;;;;;;;4.22;1.90;;;10.30;99.90;;;9.56;100.00;101791.84;4140071;28;20037;-69
2021/01/14 07:35:42;;;;;;;22.75;18.15;;;10.40;99.90;;;9.52;100.00;101794.84;4137424;28;20118;-70
2021/01/14 07:37:53;;;;;;;7.63;1.70;;;10.40;99.90;;;9.30;100.00;101785.19;4135287;28;20033;-69
2021/01/14 07:39:57;;;;;;;4.25;1.60;;;10.30;99.90;;;9.23;100.00;101798.00;4129662;28;20034;-69
2021/01/14 07:41:58;;;;;;;4.82;1.92;;;10.20;99.90;;;9.32;100.00;101794.63;4131133;28;20030;-69
2021/01/14 07:43:59;;;;;;;6.13;1.88;;;10.20;99.90;;;9.12;100.00;101795.38;4131154;28;20035;-69
2021/01/14 07:46:27;;;;;;;3.95;1.65;;;10.10;99.90;;;9.09;100.00;101781.63;4146843;28;20033;-69
2021/01/14 07:48:33;;;;;;;4.75;1.80;;;10.10;99.90;;;9.13;100.00;101783.06;4132985;28;20425;-69
2021/01/14 07:50:34;;;;;;;3.50;1.80;;;10.00;99.90;;;9.14;100.00;101772.41;4146353;28;20049;-69
2021/01/14 07:52:36;;;;;;;5.63;1.90;;;10.10;99.90;;;9.16;100.00;101769.66;4145653;28;20473;-69
2021/01/14 07:54:57;;;;;;;5.53;1.92;;;10.00;99.90;;;9.07;100.00;101765.13;4114723;28;20429;-69
2021/01/14 07:57:02;;;;;;;4.10;2.58;;;10.10;99.90;;;9.14;100.00;101775.03;4139886;28;20030;-69
2021/01/14 07:59:04;;;;;;;4.05;1.77;;;10.00;99.90;;;9.22;100.00;101763.91;4138198;28;20025;-69
2021/01/14 08:01:10;;;;;;;6.43;2.38;;;10.10;99.90;;;9.09;100.00;101766.69;4141072;28;20029;-69
2021/01/14 08:03:15;;;;;;;1.98;1.75;;;10.10;99.90;;;9.20;100.00;101768.47;4130323;28;20032;-69
2021/01/14 08:05:44;;;;;;;2.22;1.55;;;10.00;99.90;;;9.15;100.00;101765.34;4146913;28;20148;-69
2021/01/14 08:07:45;;;;;;;3.33;1.52;;;10.10;99.90;;;9.21;100.00;101772.75;4133873;28;20352;-69
2021/01/14 08:09:48;;;;;;;2.35;1.60;;;10.10;99.90;;;9.16;100.00;101759.97;4146075;28;20030;-69
2021/01/14 08:11:49;;;;;;;4.82;1.73;;;10.00;99.90;;;9.16;100.00;101761.78;4146131;28;20026;-69
2021/01/14 08:14:12;;;;;;;2.03;1.40;;;10.00;99.90;;;9.21;100.00;101759.59;4131830;28;20035;-69
2021/01/14 08:16:34;;;;;;;2.65;2.42;;;10.10;99.90;;;9.14;100.00;101755.81;4131425;28;20136;-69
2021/01/14 08:18:34;;;;;;;1.75;1.10;;;10.00;99.90;;;9.11;100.00;101751.59;4138854;28;20146;-69
2021/01/14 08:20:35;;;;;;;2.05;1.10;;;10.00;99.90;;;9.15;100.00;101744.28;4124676;28;20095;-69
2021/01/14 08:22:44;;;;;;;1.40;1.27;;;10.10;99.90;;;9.18;100.00;101765.09;4125464;28;20065;-70
2021/01/14 08:24:54;;;;;;;1.80;1.30;;;10.10;99.90;;;9.18;100.00;101754.56;4143915;28;20022;-69
2021/01/14 08:27:05;;;;;;;1.48;1.35;;;10.10;99.90;;;9.12;100.00;101760.31;4145862;28;20069;-69
2021/01/14 08:29:06;;;;;;;2.85;1.30;;;10.10;99.90;;;9.21;100.00;101755.19;4145438;28;20033;-69
2021/01/14 08:31:07;;;;;;;3.35;1.60;;;10.10;99.90;;;9.10;100.00;101762.25;4145789;28;20109;-69
2021/01/14 08:33:08;;;;;;;1.60;1.38;;;10.10;99.90;;;9.15;100.00;101765.34;4145859;28;20038;-69
2021/01/14 08:35:15;;;;;;;1.60;1.50;;;10.00;99.90;;;9.21;100.00;101770.97;4146787;28;20223;-69
2021/01/14 08:37:29;;;;;;;2.75;2.00;;;10.10;99.90;;;9.19;100.00;101772.91;4131012;28;20038;-69
2021/01/14 08:39:31;;;;;;;1.65;1.40;;;10.10;99.90;;;9.20;100.00;101773.75;4142340;28;20068;-69
2021/01/14 08:41:36;;;;;;;1.40;1.20;;;10.10;99.90;;;9.25;100.00;101761.88;4139108;28;20097;-69